sensor_id;sensor_type;location;lat;lon;timestamp;P1;durP1;ratioP1;P2;durP2;ratioP2
45049;SDS011;61798;48.048;-1.928;2023-01-28T00:03:01;13.77;;;8.43;;
45049;SDS011;61798;48.048;-1.928;2023-01-28T00:05:18;16.20;;;9.60;;
45049;SDS011;61798;48.048;-1.928;2023-01-28T00:07:37;17.33;;;10.20;;
45049;SDS011;61798;48.048;-1.928;2023-01-28T00:10:36;16.48;;;9.38;;
45049;SDS011;61798;48.048;-1.928;2023-01-28T00:13:19;22.35;;;9.65;;
45049;SDS011;61798;48.048;-1.928;2023-01-28T00:15:38;16.73;;;8.93;;
45049;SDS011;61798;48.048;-1.928;2023-01-28T00:18:00;16.90;;;10.05;;
45049;SDS011;61798;48.048;-1.928;2023-01-28T00:20:40;19.20;;;9.18;;
45049;SDS011;61798;48.048;-1.928;2023-01-28T00:27:52;14.02;;;9.02;;
45049;SDS011;61798;48.048;-1.928;2023-01-28T00:30:43;22.38;;;9.35;;
45049;SDS011;61798;48.048;-1.928;2023-01-28T00:41:22;14.25;;;8.40;;
45049;SDS011;61798;48.048;-1.928;2023-01-28T00:44:03;15.50;;;8.80;;
45049;SDS011;61798;48.048;-1.928;2023-01-28T00:51:09;13.55;;;8.18;;
45049;SDS011;61798;48.048;-1.928;2023-01-28T00:53:58;19.83;;;8.27;;
45049;SDS011;61798;48.048;-1.928;2023-01-28T00:56:42;16.48;;;8.55;;
45049;SDS011;61798;48.048;-1.928;2023-01-28T00:59:41;17.45;;;8.23;;
45049;SDS011;61798;48.048;-1.928;2023-01-28T01:03:29;15.07;;;8.02;;
45049;SDS011;61798;48.048;-1.928;2023-01-28T01:06:20;15.85;;;8.02;;
45049;SDS011;61798;48.048;-1.928;2023-01-28T01:08:39;13.30;;;8.23;;
45049;SDS011;61798;48.048;-1.928;2023-01-28T01:11:14;13.82;;;7.68;;
45049;SDS011;61798;48.048;-1.928;2023-01-28T01:14:17;17.35;;;8.23;;
45049;SDS011;61798;48.048;-1.928;2023-01-28T01:16:57;19.42;;;8.27;;
45049;SDS011;61798;48.048;-1.928;2023-01-28T01:22:34;14.82;;;8.57;;
45049;SDS011;61798;48.048;-1.928;2023-01-28T01:25:11;15.02;;;7.85;;
45049;SDS011;61798;48.048;-1.928;2023-01-28T01:28:16;17.77;;;8.02;;
45049;SDS011;61798;48.048;-1.928;2023-01-28T01:31:02;18.52;;;8.75;;
45049;SDS011;61798;48.048;-1.928;2023-01-28T01:34:46;18.10;;;7.95;;
45049;SDS011;61798;48.048;-1.928;2023-01-28T01:37:27;15.95;;;7.95;;
45049;SDS011;61798;48.048;-1.928;2023-01-28T01:45:12;13.02;;;6.95;;
45049;SDS011;61798;48.048;-1.928;2023-01-28T01:48:34;18.70;;;8.07;;
45049;SDS011;61798;48.048;-1.928;2023-01-28T01:55:56;17.45;;;7.65;;
45049;SDS011;61798;48.048;-1.928;2023-01-28T01:59:14;16.08;;;7.68;;
45049;SDS011;61798;48.048;-1.928;2023-01-28T02:06:09;14.98;;;7.70;;
45049;SDS011;61798;48.048;-1.928;2023-01-28T02:09:44;16.58;;;8.15;;
45049;SDS011;61798;48.048;-1.928;2023-01-28T02:13:04;16.33;;;8.07;;
45049;SDS011;61798;48.048;-1.928;2023-01-28T03:04:47;16.63;;;9.30;;
45049;SDS011;61798;48.048;-1.928;2023-01-28T03:52:45;16.20;;;6.85;;
45049;SDS011;61798;48.048;-1.928;2023-01-28T03:56:43;14.80;;;6.70;;
45049;SDS011;61798;48.048;-1.928;2023-01-28T03:59:11;20.42;;;7.43;;
45049;SDS011;61798;48.048;-1.928;2023-01-28T04:02:47;14.15;;;6.63;;
45049;SDS011;61798;48.048;-1.928;2023-01-28T05:33:19;11.55;;;5.97;;
45049;SDS011;61798;48.048;-1.928;2023-01-28T05:36:05;11.02;;;6.25;;
45049;SDS011;61798;48.048;-1.928;2023-01-28T05:38:45;12.82;;;6.30;;
45049;SDS011;61798;48.048;-1.928;2023-01-28T06:02:17;13.80;;;6.28;;
45049;SDS011;61798;48.048;-1.928;2023-01-28T06:09:46;12.95;;;6.35;;
45049;SDS011;61798;48.048;-1.928;2023-01-28T06:13:23;11.07;;;6.25;;
45049;SDS011;61798;48.048;-1.928;2023-01-28T06:17:06;16.15;;;6.50;;
45049;SDS011;61798;48.048;-1.928;2023-01-28T06:20:15;14.60;;;6.82;;
45049;SDS011;61798;48.048;-1.928;2023-01-28T06:22:50;12.18;;;6.97;;
45049;SDS011;61798;48.048;-1.928;2023-01-28T06:25:40;15.80;;;6.70;;
45049;SDS011;61798;48.048;-1.928;2023-01-28T06:28:48;16.23;;;7.10;;
45049;SDS011;61798;48.048;-1.928;2023-01-28T06:32:11;11.48;;;6.50;;
45049;SDS011;61798;48.048;-1.928;2023-01-28T06:39:21;16.35;;;8.35;;
45049;SDS011;61798;48.048;-1.928;2023-01-28T06:47:07;12.98;;;7.68;;
45049;SDS011;61798;48.048;-1.928;2023-01-28T06:49:48;14.48;;;7.65;;
45049;SDS011;61798;48.048;-1.928;2023-01-28T06:52:27;15.35;;;8.13;;
45049;SDS011;61798;48.048;-1.928;2023-01-28T06:54:55;15.52;;;8.65;;
45049;SDS011;61798;48.048;-1.928;2023-01-28T06:57:29;13.27;;;8.20;;
45049;SDS011;61798;48.048;-1.928;2023-01-28T07:00:08;12.40;;;8.18;;
45049;SDS011;61798;48.048;-1.928;2023-01-28T07:02:56;18.10;;;9.00;;
45049;SDS011;61798;48.048;-1.928;2023-01-28T07:10:14;17.77;;;8.45;;
45049;SDS011;61798;48.048;-1.928;2023-01-28T07:12:39;14.45;;;9.65;;
45049;SDS011;61798;48.048;-1.928;2023-01-28T07:19:16;21.50;;;10.07;;
45049;SDS011;61798;48.048;-1.928;2023-01-28T07:21:43;16.77;;;10.02;;
45049;SDS011;61798;48.048;-1.928;2023-01-28T07:24:28;17.25;;;10.02;;
45049;SDS011;61798;48.048;-1.928;2023-01-28T07:30:40;17.48;;;9.80;;
45049;SDS011;61798;48.048;-1.928;2023-01-28T07:33:06;16.55;;;9.23;;
45049;SDS011;61798;48.048;-1.928;2023-01-28T07:36:21;15.43;;;10.48;;
45049;SDS011;61798;48.048;-1.928;2023-01-28T07:38:50;17.15;;;10.50;;
45049;SDS011;61798;48.048;-1.928;2023-01-28T07:41:24;18.80;;;10.13;;
45049;SDS011;61798;48.048;-1.928;2023-01-28T07:47:16;19.63;;;11.18;;
45049;SDS011;61798;48.048;-1.928;2023-01-28T07:49:51;14.25;;;9.93;;
45049;SDS011;61798;48.048;-1.928;2023-01-28T07:52:38;17.42;;;10.80;;
45049;SDS011;61798;48.048;-1.928;2023-01-28T07:55:12;19.35;;;11.73;;
45049;SDS011;61798;48.048;-1.928;2023-01-28T07:57:55;19.13;;;11.52;;
45049;SDS011;61798;48.048;-1.928;2023-01-28T08:00:26;23.52;;;12.15;;
45049;SDS011;61798;48.048;-1.928;2023-01-28T08:02:59;23.17;;;12.25;;
45049;SDS011;61798;48.048;-1.928;2023-01-28T08:05:25;20.08;;;12.65;;
45049;SDS011;61798;48.048;-1.928;2023-01-28T08:08:19;20.38;;;12.70;;
45049;SDS011;61798;48.048;-1.928;2023-01-28T08:12:00;19.05;;;11.98;;
45049;SDS011;61798;48.048;-1.928;2023-01-28T08:15:12;20.75;;;13.38;;
45049;SDS011;61798;48.048;-1.928;2023-01-28T08:18:35;21.75;;;13.82;;
45049;SDS011;61798;48.048;-1.928;2023-01-28T08:22:34;27.08;;;15.18;;
45049;SDS011;61798;48.048;-1.928;2023-01-28T08:28:57;23.95;;;14.27;;
45049;SDS011;61798;48.048;-1.928;2023-01-28T08:31:21;21.27;;;14.05;;
45049;SDS011;61798;48.048;-1.928;2023-01-28T08:34:05;24.85;;;14.93;;
45049;SDS011;61798;48.048;-1.928;2023-01-28T08:44:56;25.85;;;16.00;;
45049;SDS011;61798;48.048;-1.928;2023-01-28T08:54:11;23.00;;;14.55;;
45049;SDS011;61798;48.048;-1.928;2023-01-28T08:56:39;23.92;;;15.25;;
45049;SDS011;61798;48.048;-1.928;2023-01-28T08:59:17;23.38;;;14.95;;
45049;SDS011;61798;48.048;-1.928;2023-01-28T09:01:28;22.70;;;15.45;;
45049;SDS011;61798;48.048;-1.928;2023-01-28T09:03:59;26.30;;;16.27;;
45049;SDS011;61798;48.048;-1.928;2023-01-28T09:06:52;23.75;;;16.08;;
45049;SDS011;61798;48.048;-1.928;2023-01-28T09:10:20;26.52;;;16.70;;
45049;SDS011;61798;48.048;-1.928;2023-01-28T09:30:10;26.30;;;15.65;;
45049;SDS011;61798;48.048;-1.928;2023-01-28T09:32:42;28.75;;;15.80;;
45049;SDS011;61798;48.048;-1.928;2023-01-28T09:35:59;24.88;;;14.63;;
45049;SDS011;61798;48.048;-1.928;2023-01-28T09:38:07;22.00;;;14.77;;
45049;SDS011;61798;48.048;-1.928;2023-01-28T09:40:43;22.83;;;14.40;;
45049;SDS011;61798;48.048;-1.928;2023-01-28T09:47:40;22.02;;;14.38;;
45049;SDS011;61798;48.048;-1.928;2023-01-28T09:55:00;24.42;;;14.50;;
45049;SDS011;61798;48.048;-1.928;2023-01-28T10:01:27;18.13;;;13.00;;
45049;SDS011;61798;48.048;-1.928;2023-01-28T10:11:19;23.17;;;14.38;;
45049;SDS011;61798;48.048;-1.928;2023-01-28T10:16:11;19.70;;;13.25;;
45049;SDS011;61798;48.048;-1.928;2023-01-28T10:18:40;22.13;;;14.55;;
45049;SDS011;61798;48.048;-1.928;2023-01-28T10:20:57;20.38;;;13.25;;
45049;SDS011;61798;48.048;-1.928;2023-01-28T10:25:34;23.23;;;13.05;;
45049;SDS011;61798;48.048;-1.928;2023-01-28T10:27:40;19.38;;;13.25;;
45049;SDS011;61798;48.048;-1.928;2023-01-28T10:29:47;22.20;;;13.70;;
45049;SDS011;61798;48.048;-1.928;2023-01-28T10:32:00;26.10;;;13.68;;
45049;SDS011;61798;48.048;-1.928;2023-01-28T10:34:08;19.67;;;14.40;;
45049;SDS011;61798;48.048;-1.928;2023-01-28T10:36:15;25.05;;;15.60;;
45049;SDS011;61798;48.048;-1.928;2023-01-28T10:38:23;45.05;;;26.95;;
45049;SDS011;61798;48.048;-1.928;2023-01-28T10:40:31;32.25;;;20.50;;
45049;SDS011;61798;48.048;-1.928;2023-01-28T10:42:37;24.42;;;15.35;;
45049;SDS011;61798;48.048;-1.928;2023-01-28T10:44:43;17.80;;;12.80;;
45049;SDS011;61798;48.048;-1.928;2023-01-28T10:46:51;16.98;;;11.65;;
45049;SDS011;61798;48.048;-1.928;2023-01-28T10:51:17;15.73;;;10.50;;
45049;SDS011;61798;48.048;-1.928;2023-01-28T10:53:34;17.33;;;10.30;;
45049;SDS011;61798;48.048;-1.928;2023-01-28T10:55:51;16.50;;;9.85;;
45049;SDS011;61798;48.048;-1.928;2023-01-28T10:58:03;15.63;;;10.20;;
45049;SDS011;61798;48.048;-1.928;2023-01-28T11:02:28;14.82;;;9.52;;
45049;SDS011;61798;48.048;-1.928;2023-01-28T11:04:37;15.57;;;9.70;;
45049;SDS011;61798;48.048;-1.928;2023-01-28T11:06:50;16.63;;;10.25;;
45049;SDS011;61798;48.048;-1.928;2023-01-28T11:09:19;17.65;;;9.52;;
45049;SDS011;61798;48.048;-1.928;2023-01-28T11:11:29;16.88;;;9.63;;
45049;SDS011;61798;48.048;-1.928;2023-01-28T11:13:39;14.30;;;8.75;;
45049;SDS011;61798;48.048;-1.928;2023-01-28T11:18:05;10.70;;;6.78;;
45049;SDS011;61798;48.048;-1.928;2023-01-28T11:20:22;11.23;;;7.18;;
45049;SDS011;61798;48.048;-1.928;2023-01-28T11:22:32;13.27;;;6.55;;
45049;SDS011;61798;48.048;-1.928;2023-01-28T11:24:40;12.05;;;6.75;;
45049;SDS011;61798;48.048;-1.928;2023-01-28T11:26:48;10.85;;;6.38;;
45049;SDS011;61798;48.048;-1.928;2023-01-28T11:28:57;12.15;;;7.18;;
45049;SDS011;61798;48.048;-1.928;2023-01-28T11:31:04;13.63;;;6.82;;
45049;SDS011;61798;48.048;-1.928;2023-01-28T11:36:13;16.27;;;8.18;;
45049;SDS011;61798;48.048;-1.928;2023-01-28T11:38:22;14.98;;;8.27;;
45049;SDS011;61798;48.048;-1.928;2023-01-28T11:40:30;15.45;;;7.10;;
45049;SDS011;61798;48.048;-1.928;2023-01-28T11:42:36;13.10;;;7.68;;
45049;SDS011;61798;48.048;-1.928;2023-01-28T11:44:42;14.90;;;8.88;;
45049;SDS011;61798;48.048;-1.928;2023-01-28T11:47:05;15.27;;;8.20;;
45049;SDS011;61798;48.048;-1.928;2023-01-28T11:51:39;16.38;;;8.18;;
45049;SDS011;61798;48.048;-1.928;2023-01-28T11:56:11;16.77;;;9.27;;
45049;SDS011;61798;48.048;-1.928;2023-01-28T12:08:40;15.43;;;8.68;;
45049;SDS011;61798;48.048;-1.928;2023-01-28T12:21:42;14.60;;;7.95;;
45049;SDS011;61798;48.048;-1.928;2023-01-28T12:33:53;15.98;;;6.82;;
45049;SDS011;61798;48.048;-1.928;2023-01-28T12:38:55;8.68;;;5.25;;
45049;SDS011;61798;48.048;-1.928;2023-01-28T12:41:15;12.15;;;5.07;;
45049;SDS011;61798;48.048;-1.928;2023-01-28T12:44:08;12.05;;;4.25;;
45049;SDS011;61798;48.048;-1.928;2023-01-28T12:45:56;10.27;;;4.75;;
45049;SDS011;61798;48.048;-1.928;2023-01-28T12:48:10;8.68;;;4.95;;
45049;SDS011;61798;48.048;-1.928;2023-01-28T12:50:21;18.88;;;8.80;;
45049;SDS011;61798;48.048;-1.928;2023-01-28T12:52:34;11.57;;;6.38;;
45049;SDS011;61798;48.048;-1.928;2023-01-28T12:57:02;10.07;;;5.50;;
45049;SDS011;61798;48.048;-1.928;2023-01-28T13:01:25;11.88;;;4.00;;
45049;SDS011;61798;48.048;-1.928;2023-01-28T13:06:20;8.90;;;4.38;;
45049;SDS011;61798;48.048;-1.928;2023-01-28T13:08:38;16.20;;;4.00;;
45049;SDS011;61798;48.048;-1.928;2023-01-28T13:10:46;6.63;;;3.20;;
45049;SDS011;61798;48.048;-1.928;2023-01-28T13:12:55;12.25;;;3.63;;
45049;SDS011;61798;48.048;-1.928;2023-01-28T13:15:04;10.77;;;3.42;;
45049;SDS011;61798;48.048;-1.928;2023-01-28T13:17:25;11.90;;;5.22;;
45049;SDS011;61798;48.048;-1.928;2023-01-28T13:19:36;12.63;;;4.20;;
45049;SDS011;61798;48.048;-1.928;2023-01-28T13:21:46;9.63;;;4.47;;
45049;SDS011;61798;48.048;-1.928;2023-01-28T13:28:28;10.77;;;3.88;;
45049;SDS011;61798;48.048;-1.928;2023-01-28T13:30:46;7.63;;;3.35;;
45049;SDS011;61798;48.048;-1.928;2023-01-28T13:32:55;12.05;;;5.30;;
45049;SDS011;61798;48.048;-1.928;2023-01-28T13:35:05;14.00;;;3.90;;
45049;SDS011;61798;48.048;-1.928;2023-01-28T13:39:34;15.13;;;6.43;;
45049;SDS011;61798;48.048;-1.928;2023-01-28T13:43:50;9.43;;;4.80;;
45049;SDS011;61798;48.048;-1.928;2023-01-28T13:45:57;15.02;;;7.40;;
45049;SDS011;61798;48.048;-1.928;2023-01-28T13:50:22;10.60;;;5.43;;
45049;SDS011;61798;48.048;-1.928;2023-01-28T13:52:31;16.88;;;8.30;;
45049;SDS011;61798;48.048;-1.928;2023-01-28T13:54:43;15.43;;;7.70;;
45049;SDS011;61798;48.048;-1.928;2023-01-28T14:03:50;27.10;;;13.82;;
45049;SDS011;61798;48.048;-1.928;2023-01-28T14:07:01;18.08;;;10.90;;
45049;SDS011;61798;48.048;-1.928;2023-01-28T14:16:31;18.88;;;9.38;;
45049;SDS011;61798;48.048;-1.928;2023-01-28T14:18:58;12.82;;;7.07;;
45049;SDS011;61798;48.048;-1.928;2023-01-28T14:21:13;10.50;;;5.57;;
45049;SDS011;61798;48.048;-1.928;2023-01-28T14:23:21;10.25;;;4.88;;
45049;SDS011;61798;48.048;-1.928;2023-01-28T14:28:03;16.48;;;5.63;;
45049;SDS011;61798;48.048;-1.928;2023-01-28T14:32:29;11.80;;;6.35;;
45049;SDS011;61798;48.048;-1.928;2023-01-28T14:34:37;13.65;;;7.38;;
45049;SDS011;61798;48.048;-1.928;2023-01-28T14:36:44;13.50;;;6.88;;
45049;SDS011;61798;48.048;-1.928;2023-01-28T14:38:53;15.05;;;6.05;;
45049;SDS011;61798;48.048;-1.928;2023-01-28T14:41:01;13.85;;;4.88;;
45049;SDS011;61798;48.048;-1.928;2023-01-28T14:43:12;7.03;;;3.65;;
45049;SDS011;61798;48.048;-1.928;2023-01-28T14:45:47;10.90;;;4.43;;
45049;SDS011;61798;48.048;-1.928;2023-01-28T14:48:25;8.45;;;5.00;;
45049;SDS011;61798;48.048;-1.928;2023-01-28T14:55:50;9.23;;;4.72;;
45049;SDS011;61798;48.048;-1.928;2023-01-28T14:58:04;9.90;;;5.28;;
45049;SDS011;61798;48.048;-1.928;2023-01-28T15:00:24;20.85;;;10.23;;
45049;SDS011;61798;48.048;-1.928;2023-01-28T15:02:32;12.20;;;5.78;;
45049;SDS011;61798;48.048;-1.928;2023-01-28T15:04:38;16.65;;;8.32;;
45049;SDS011;61798;48.048;-1.928;2023-01-28T15:06:44;9.45;;;4.65;;
45049;SDS011;61798;48.048;-1.928;2023-01-28T15:08:51;9.07;;;4.57;;
45049;SDS011;61798;48.048;-1.928;2023-01-28T15:10:58;9.80;;;4.55;;
45049;SDS011;61798;48.048;-1.928;2023-01-28T15:13:07;15.18;;;5.07;;
45049;SDS011;61798;48.048;-1.928;2023-01-28T15:17:30;11.52;;;5.75;;
45049;SDS011;61798;48.048;-1.928;2023-01-28T15:19:36;11.35;;;5.13;;
45049;SDS011;61798;48.048;-1.928;2023-01-28T15:21:46;17.55;;;6.07;;
45049;SDS011;61798;48.048;-1.928;2023-01-28T15:23:54;13.38;;;6.10;;
45049;SDS011;61798;48.048;-1.928;2023-01-28T15:26:14;17.95;;;5.70;;
45049;SDS011;61798;48.048;-1.928;2023-01-28T15:28:29;11.32;;;4.38;;
45049;SDS011;61798;48.048;-1.928;2023-01-28T15:30:43;10.15;;;3.55;;
45049;SDS011;61798;48.048;-1.928;2023-01-28T15:35:11;6.03;;;3.17;;
45049;SDS011;61798;48.048;-1.928;2023-01-28T15:37:21;8.73;;;3.13;;
45049;SDS011;61798;48.048;-1.928;2023-01-28T15:39:27;7.38;;;3.00;;
45049;SDS011;61798;48.048;-1.928;2023-01-28T15:41:38;6.38;;;3.28;;
45049;SDS011;61798;48.048;-1.928;2023-01-28T15:43:48;14.45;;;6.35;;
45049;SDS011;61798;48.048;-1.928;2023-01-28T15:45:56;12.25;;;5.00;;
45049;SDS011;61798;48.048;-1.928;2023-01-28T15:48:04;13.18;;;6.65;;
45049;SDS011;61798;48.048;-1.928;2023-01-28T15:50:18;15.43;;;6.43;;
45049;SDS011;61798;48.048;-1.928;2023-01-28T15:52:33;17.42;;;11.20;;
45049;SDS011;61798;48.048;-1.928;2023-01-28T15:54:42;10.20;;;5.55;;
45049;SDS011;61798;48.048;-1.928;2023-01-28T15:56:51;11.45;;;6.72;;
45049;SDS011;61798;48.048;-1.928;2023-01-28T16:01:35;11.15;;;5.63;;
45049;SDS011;61798;48.048;-1.928;2023-01-28T16:03:42;13.73;;;4.18;;
45049;SDS011;61798;48.048;-1.928;2023-01-28T16:05:58;9.18;;;4.00;;
45049;SDS011;61798;48.048;-1.928;2023-01-28T16:08:07;18.63;;;5.32;;
45049;SDS011;61798;48.048;-1.928;2023-01-28T16:10:20;9.45;;;4.20;;
45049;SDS011;61798;48.048;-1.928;2023-01-28T16:12:30;15.82;;;7.88;;
45049;SDS011;61798;48.048;-1.928;2023-01-28T16:14:46;15.77;;;8.00;;
45049;SDS011;61798;48.048;-1.928;2023-01-28T16:16:55;10.48;;;4.45;;
45049;SDS011;61798;48.048;-1.928;2023-01-28T16:19:05;10.57;;;3.80;;
45049;SDS011;61798;48.048;-1.928;2023-01-28T16:21:17;10.32;;;4.20;;
45049;SDS011;61798;48.048;-1.928;2023-01-28T16:23:26;7.88;;;4.20;;
45049;SDS011;61798;48.048;-1.928;2023-01-28T16:25:33;17.55;;;4.45;;
45049;SDS011;61798;48.048;-1.928;2023-01-28T16:27:43;13.65;;;5.43;;
45049;SDS011;61798;48.048;-1.928;2023-01-28T16:29:49;16.08;;;5.68;;
45049;SDS011;61798;48.048;-1.928;2023-01-28T16:31:55;9.80;;;4.32;;
45049;SDS011;61798;48.048;-1.928;2023-01-28T16:34:04;13.25;;;3.97;;
45049;SDS011;61798;48.048;-1.928;2023-01-28T16:36:13;16.35;;;8.75;;
45049;SDS011;61798;48.048;-1.928;2023-01-28T16:38:21;13.50;;;8.52;;
45049;SDS011;61798;48.048;-1.928;2023-01-28T16:40:27;12.57;;;6.80;;
45049;SDS011;61798;48.048;-1.928;2023-01-28T16:42:33;11.38;;;6.65;;
45049;SDS011;61798;48.048;-1.928;2023-01-28T16:44:39;11.70;;;5.28;;
45049;SDS011;61798;48.048;-1.928;2023-01-28T16:46:45;10.65;;;6.50;;
45049;SDS011;61798;48.048;-1.928;2023-01-28T16:48:51;12.57;;;6.47;;
45049;SDS011;61798;48.048;-1.928;2023-01-28T16:50:57;11.57;;;4.20;;
45049;SDS011;61798;48.048;-1.928;2023-01-28T16:53:16;18.58;;;3.60;;
45049;SDS011;61798;48.048;-1.928;2023-01-28T16:55:28;10.50;;;4.95;;
45049;SDS011;61798;48.048;-1.928;2023-01-28T16:57:34;8.13;;;3.55;;
45049;SDS011;61798;48.048;-1.928;2023-01-28T16:59:41;8.55;;;4.65;;
45049;SDS011;61798;48.048;-1.928;2023-01-28T17:01:47;5.78;;;3.47;;
45049;SDS011;61798;48.048;-1.928;2023-01-28T17:03:53;10.18;;;3.35;;
45049;SDS011;61798;48.048;-1.928;2023-01-28T17:06:00;9.88;;;3.10;;
45049;SDS011;61798;48.048;-1.928;2023-01-28T17:08:06;8.07;;;3.17;;
45049;SDS011;61798;48.048;-1.928;2023-01-28T17:10:13;8.82;;;3.42;;
45049;SDS011;61798;48.048;-1.928;2023-01-28T17:12:21;9.52;;;3.20;;
45049;SDS011;61798;48.048;-1.928;2023-01-28T17:14:27;12.05;;;5.18;;
45049;SDS011;61798;48.048;-1.928;2023-01-28T17:16:33;11.55;;;4.57;;
45049;SDS011;61798;48.048;-1.928;2023-01-28T17:18:39;9.48;;;3.63;;
45049;SDS011;61798;48.048;-1.928;2023-01-28T17:20:45;9.07;;;3.45;;
45049;SDS011;61798;48.048;-1.928;2023-01-28T17:22:51;9.48;;;3.53;;
45049;SDS011;61798;48.048;-1.928;2023-01-28T17:24:57;14.15;;;5.03;;
45049;SDS011;61798;48.048;-1.928;2023-01-28T17:27:02;20.88;;;8.52;;
45049;SDS011;61798;48.048;-1.928;2023-01-28T17:29:10;13.82;;;6.38;;
45049;SDS011;61798;48.048;-1.928;2023-01-28T17:31:16;13.35;;;5.80;;
45049;SDS011;61798;48.048;-1.928;2023-01-28T17:33:22;9.63;;;4.82;;
45049;SDS011;61798;48.048;-1.928;2023-01-28T17:35:27;9.27;;;4.30;;
45049;SDS011;61798;48.048;-1.928;2023-01-28T17:37:35;11.90;;;3.97;;
45049;SDS011;61798;48.048;-1.928;2023-01-28T17:39:42;9.60;;;4.22;;
45049;SDS011;61798;48.048;-1.928;2023-01-28T17:41:48;5.38;;;3.08;;
45049;SDS011;61798;48.048;-1.928;2023-01-28T17:43:56;10.00;;;4.13;;
45049;SDS011;61798;48.048;-1.928;2023-01-28T17:46:08;10.95;;;4.78;;
45049;SDS011;61798;48.048;-1.928;2023-01-28T17:48:18;17.45;;;7.63;;
45049;SDS011;61798;48.048;-1.928;2023-01-28T17:50:24;9.93;;;4.10;;
45049;SDS011;61798;48.048;-1.928;2023-01-28T17:52:30;15.73;;;5.28;;
45049;SDS011;61798;48.048;-1.928;2023-01-28T17:54:36;11.80;;;4.28;;
45049;SDS011;61798;48.048;-1.928;2023-01-28T17:56:42;10.30;;;3.83;;
45049;SDS011;61798;48.048;-1.928;2023-01-28T17:58:50;7.28;;;3.30;;
45049;SDS011;61798;48.048;-1.928;2023-01-28T18:01:06;18.55;;;6.70;;
45049;SDS011;61798;48.048;-1.928;2023-01-28T18:03:14;19.13;;;9.45;;
45049;SDS011;61798;48.048;-1.928;2023-01-28T18:05:21;21.60;;;9.80;;
45049;SDS011;61798;48.048;-1.928;2023-01-28T18:07:27;17.92;;;7.70;;
45049;SDS011;61798;48.048;-1.928;2023-01-28T18:09:33;12.70;;;5.95;;
45049;SDS011;61798;48.048;-1.928;2023-01-28T18:11:39;12.82;;;4.47;;
45049;SDS011;61798;48.048;-1.928;2023-01-28T18:13:45;9.60;;;4.75;;
45049;SDS011;61798;48.048;-1.928;2023-01-28T18:15:51;14.27;;;3.83;;
45049;SDS011;61798;48.048;-1.928;2023-01-28T18:17:57;8.27;;;3.67;;
45049;SDS011;61798;48.048;-1.928;2023-01-28T18:20:04;7.18;;;3.35;;
45049;SDS011;61798;48.048;-1.928;2023-01-28T18:22:10;9.43;;;3.35;;
45049;SDS011;61798;48.048;-1.928;2023-01-28T18:24:16;10.57;;;4.38;;
45049;SDS011;61798;48.048;-1.928;2023-01-28T18:26:22;14.27;;;4.68;;
45049;SDS011;61798;48.048;-1.928;2023-01-28T18:28:28;13.57;;;6.00;;
45049;SDS011;61798;48.048;-1.928;2023-01-28T18:30:35;13.45;;;5.88;;
45049;SDS011;61798;48.048;-1.928;2023-01-28T18:32:41;8.80;;;4.47;;
45049;SDS011;61798;48.048;-1.928;2023-01-28T18:34:47;12.13;;;3.63;;
45049;SDS011;61798;48.048;-1.928;2023-01-28T18:36:53;7.38;;;3.90;;
45049;SDS011;61798;48.048;-1.928;2023-01-28T18:38:59;9.00;;;3.38;;
45049;SDS011;61798;48.048;-1.928;2023-01-28T18:41:05;8.32;;;3.40;;
45049;SDS011;61798;48.048;-1.928;2023-01-28T18:43:11;7.43;;;3.03;;
45049;SDS011;61798;48.048;-1.928;2023-01-28T18:45:18;5.45;;;3.47;;
45049;SDS011;61798;48.048;-1.928;2023-01-28T18:47:24;7.82;;;3.17;;
45049;SDS011;61798;48.048;-1.928;2023-01-28T18:49:30;10.40;;;3.40;;
45049;SDS011;61798;48.048;-1.928;2023-01-28T18:51:36;11.13;;;3.08;;
45049;SDS011;61798;48.048;-1.928;2023-01-28T18:53:43;8.95;;;3.53;;
45049;SDS011;61798;48.048;-1.928;2023-01-28T18:55:48;11.57;;;3.58;;
45049;SDS011;61798;48.048;-1.928;2023-01-28T18:57:55;13.88;;;3.90;;
45049;SDS011;61798;48.048;-1.928;2023-01-28T19:00:01;9.27;;;4.30;;
45049;SDS011;61798;48.048;-1.928;2023-01-28T19:02:09;18.98;;;6.60;;
45049;SDS011;61798;48.048;-1.928;2023-01-28T19:04:17;10.13;;;4.60;;
45049;SDS011;61798;48.048;-1.928;2023-01-28T19:06:24;10.60;;;4.70;;
45049;SDS011;61798;48.048;-1.928;2023-01-28T19:08:32;10.95;;;5.05;;
45049;SDS011;61798;48.048;-1.928;2023-01-28T19:10:39;10.32;;;4.95;;
45049;SDS011;61798;48.048;-1.928;2023-01-28T19:12:45;13.63;;;5.93;;
45049;SDS011;61798;48.048;-1.928;2023-01-28T19:14:51;17.60;;;5.47;;
45049;SDS011;61798;48.048;-1.928;2023-01-28T19:16:57;11.57;;;5.07;;
45049;SDS011;61798;48.048;-1.928;2023-01-28T19:19:03;10.00;;;4.07;;
45049;SDS011;61798;48.048;-1.928;2023-01-28T19:21:09;14.00;;;4.20;;
45049;SDS011;61798;48.048;-1.928;2023-01-28T19:23:15;10.32;;;4.60;;
45049;SDS011;61798;48.048;-1.928;2023-01-28T19:25:21;13.50;;;4.88;;
45049;SDS011;61798;48.048;-1.928;2023-01-28T19:27:27;10.95;;;4.72;;
45049;SDS011;61798;48.048;-1.928;2023-01-28T19:29:33;11.98;;;5.25;;
45049;SDS011;61798;48.048;-1.928;2023-01-28T19:31:39;8.10;;;4.65;;
45049;SDS011;61798;48.048;-1.928;2023-01-28T19:33:45;10.80;;;4.65;;
45049;SDS011;61798;48.048;-1.928;2023-01-28T19:35:56;15.57;;;4.57;;
45049;SDS011;61798;48.048;-1.928;2023-01-28T19:38:03;9.48;;;4.10;;
45049;SDS011;61798;48.048;-1.928;2023-01-28T19:40:10;8.85;;;4.43;;
45049;SDS011;61798;48.048;-1.928;2023-01-28T19:42:16;10.13;;;4.10;;
45049;SDS011;61798;48.048;-1.928;2023-01-28T19:44:22;7.50;;;4.07;;
45049;SDS011;61798;48.048;-1.928;2023-01-28T19:46:28;12.00;;;3.85;;
45049;SDS011;61798;48.048;-1.928;2023-01-28T19:48:34;10.00;;;4.38;;
45049;SDS011;61798;48.048;-1.928;2023-01-28T19:50:40;12.10;;;4.68;;
45049;SDS011;61798;48.048;-1.928;2023-01-28T19:52:46;13.05;;;4.20;;
45049;SDS011;61798;48.048;-1.928;2023-01-28T19:54:52;15.43;;;4.55;;
45049;SDS011;61798;48.048;-1.928;2023-01-28T19:56:58;9.60;;;4.20;;
45049;SDS011;61798;48.048;-1.928;2023-01-28T19:59:04;10.18;;;4.75;;
45049;SDS011;61798;48.048;-1.928;2023-01-28T20:01:11;13.25;;;4.32;;
45049;SDS011;61798;48.048;-1.928;2023-01-28T20:03:22;10.00;;;4.78;;
45049;SDS011;61798;48.048;-1.928;2023-01-28T20:05:28;10.32;;;4.95;;
45049;SDS011;61798;48.048;-1.928;2023-01-28T20:07:34;14.50;;;5.22;;
45049;SDS011;61798;48.048;-1.928;2023-01-28T20:09:40;9.70;;;5.60;;
45049;SDS011;61798;48.048;-1.928;2023-01-28T20:11:46;10.52;;;4.93;;
45049;SDS011;61798;48.048;-1.928;2023-01-28T20:13:53;10.43;;;4.90;;
45049;SDS011;61798;48.048;-1.928;2023-01-28T20:16:05;9.40;;;4.85;;
45049;SDS011;61798;48.048;-1.928;2023-01-28T20:18:12;14.93;;;5.32;;
45049;SDS011;61798;48.048;-1.928;2023-01-28T20:20:18;11.52;;;4.68;;
45049;SDS011;61798;48.048;-1.928;2023-01-28T20:22:24;12.90;;;4.53;;
45049;SDS011;61798;48.048;-1.928;2023-01-28T20:24:30;11.23;;;4.78;;
45049;SDS011;61798;48.048;-1.928;2023-01-28T20:26:37;11.55;;;4.60;;
45049;SDS011;61798;48.048;-1.928;2023-01-28T20:28:45;7.93;;;4.35;;
45049;SDS011;61798;48.048;-1.928;2023-01-28T20:30:54;9.82;;;4.55;;
45049;SDS011;61798;48.048;-1.928;2023-01-28T20:33:01;11.45;;;4.00;;
45049;SDS011;61798;48.048;-1.928;2023-01-28T20:35:08;7.68;;;4.53;;
45049;SDS011;61798;48.048;-1.928;2023-01-28T20:37:14;9.93;;;4.93;;
45049;SDS011;61798;48.048;-1.928;2023-01-28T20:39:20;22.23;;;7.35;;
45049;SDS011;61798;48.048;-1.928;2023-01-28T20:41:26;14.23;;;5.10;;
45049;SDS011;61798;48.048;-1.928;2023-01-28T20:43:33;14.02;;;4.68;;
45049;SDS011;61798;48.048;-1.928;2023-01-28T20:45:42;14.27;;;3.67;;
45049;SDS011;61798;48.048;-1.928;2023-01-28T20:47:48;7.78;;;3.90;;
45049;SDS011;61798;48.048;-1.928;2023-01-28T20:49:54;9.45;;;4.90;;